Fire Weather Observation
Issued by NWS Grand Junction, CO

Home | Current Version | Previous Version | Graphics & Text | Print | Product List | Glossary On
Versions: 1 2 3 4 5 6 7 8 9 10 11 12 13 14 15 16 17 18 19 20 21 22 23 24 25 26 27 28 29 30 31 32 33
000
SHUS65 KGJT 232015
FWOGJT

DAILY FIRE WEATHER OBSERVATION
NATIONAL WEATHER SERVICE GRAND JUNCTION CO
212 PM MDT FRI SEP 23 2016

STATE OF THE WEATHER (W)               2
DRY BULB TEMPERATURE                   58   DEGREES FAHRENHEIT
RELATIVE HUMIDITY (RH)                 49   PERCENT
LIGHTNING ACTIVITY LEVEL
  (LAL - MIDNIGHT TO 2 PM)             5
WIND DIRECTION                         180  DEGREES (C IF CALM)
WIND SPEED                             24   MPH
MAX TEMP (2 PM - 2 PM)                 90   DEGREES FAHRENHEIT
MIN TEMP (2 PM - 2 PM)                 46   DEGREES FAHRENHEIT
MAX RH (2 PM - 2 PM)                   90   PERCENT
MIN RH (2 PM - 2 PM)                   18   PERCENT
PCPN DURATION                          5.1  HOURS
PCPN AMT (2 PM - 2 PM)                 0.28 INCHES
LAL (2 PM - 2 PM)                      5

$$

METAR KGJT 231953Z 16021G25KT 10SM CLR 14/04 A3001 RMK AO2 PK
      WND 14026/1939 SLP120 T01440039



USA.gov is the U.S. government's official web portal to all federal, state and local government web resources and services.